Rushville, New York
Current Conditions -  °F | °C
As of 2:53 AM on Wednesday 26 Nov 2014 (Local Time) from KPEO Reporting Station
Overcast Overcast  
Wind Chill: 34°   Ceiling: 2800
Heat Index: 34°   Visibility: 10mi
Dew Point: 22°   Wind: 3mph
Humidity: 61%   Direction: NA
Pressure: 30.2"   Gusts: NA
Location:  42.76°N, 77.23°W
Report Text: KPEO 260753Z AUTO VRB03KT 10SM OVC028 01/M06 A3020 RMK AO2 SLP234 T00111056
Loading
Personal Weather Stations






























Interactive Weather Map New forecast layout! Learn more

10-Day Weather Forecast

Advertisements
Track Severe Weather on mobile